| time (UTC) | temp C | wind direction | speed KPH | gust KPH | rain 1hr cm | rain 24hr cm | rain mn cm | humidity % | barometer mb |
| 20260509173046 | 26 | 313 | 1.6 | 9.7 | 0.00 | 0.51 | 0.05 | 82 | 1009.5 |
| 20260509171545 | 26 | 5 | 0.0 | 9.7 | 0.00 | 0.51 | 0.05 | 83 | 1009.6 |
| 20260509170040 | 25 | 285 | 0.0 | 4.8 | 0.00 | 0.51 | 0.05 | 83 | 1009.7 |
| 20260509164538 | 25 | 144 | 0.0 | 8.0 | 0.00 | 0.51 | 0.05 | 84 | 1009.8 |
| 20260509163044 | 25 | 173 | 1.6 | 6.4 | 0.00 | 0.51 | 0.05 | 86 | 1009.9 |
| 20260509161542 | 25 | 209 | 6.4 | 11.3 | 0.00 | 0.51 | 0.05 | 86 | 1009.9 |
| 20260509160034 | 24 | 235 | 3.2 | 12.9 | 0.00 | 0.51 | 0.05 | 88 | 1009.8 |
| 20260509154529 | 23 | 173 | 8.0 | 12.9 | 0.00 | 0.51 | 0.05 | 89 | 1009.8 |
| 20260509153042 | 23 | 219 | 6.4 | 11.3 | 0.00 | 0.51 | 0.05 | 91 | 1009.7 |
| 20260509151524 | 23 | 155 | 4.8 | 9.7 | 0.00 | 0.51 | 0.05 | 92 | 1009.6 |
| 20260509150028 | 22 | 132 | 0.0 | 8.0 | 0.00 | 0.51 | 0.05 | 93 | 1009.6 |
| 20260509144515 | 22 | 114 | 6.4 | 11.3 | 0.00 | 0.51 | 0.05 | 92 | 1009.6 |
| 20260509143013 | 22 | 132 | 4.8 | 11.3 | 0.00 | 0.51 | 0.05 | 92 | 1009.6 |
| 20260509141512 | 21 | 117 | 3.2 | 8.0 | 0.00 | 0.51 | 0.05 | 92 | 1009.7 |
| 20260509140006 | 21 | 126 | 3.2 | 6.4 | 0.00 | 0.51 | 0.05 | 92 | 1009.9 |
| 20260509134503 | 20 | 125 | 3.2 | 6.4 | 0.00 | 0.51 | 0.05 | 91 | 1010.1 |
| 20260509133005 | 20 | 126 | 3.2 | 6.4 | 0.00 | 0.51 | 0.05 | 91 | 1010.2 |
| 20260509131502 | 20 | 122 | 4.8 | 11.3 | 0.00 | 0.51 | 0.05 | 91 | 1010.2 |
| 20260509130101 | 19 | 97 | 4.8 | 9.7 | 0.00 | 0.51 | 0.05 | 91 | 1010.5 |
| 20260509124600 | 19 | 77 | 4.8 | 8.0 | 0.00 | 0.51 | 0.05 | 91 | 1010.4 |
| 20260509123129 | 19 | 79 | 3.2 | 6.4 | 0.00 | 0.51 | 0.05 | 90 | 1010.3 |
| 20260509121601 | 19 | 82 | 3.2 | 9.7 | 0.00 | 0.51 | 0.05 | 90 | 1010.2 |
| 20260509120059 | 19 | 121 | 0.0 | 0.0 | 0.00 | 0.51 | 0.05 | 90 | 1010.0 |
| 20260509114558 | 19 | 121 | 0.0 | 0.0 | 0.00 | 0.51 | 0.05 | 91 | 1009.8 |
| 20260509113105 | 19 | 121 | 0.0 | 4.8 | 0.00 | 0.51 | 0.05 | 91 | 1009.6 |
| 20260509111557 | 18 | 125 | 0.0 | 6.4 | 0.00 | 0.51 | 0.05 | 90 | 1008.7 |
| 20260509110057 | 18 | 107 | 4.8 | 14.5 | 0.00 | 0.51 | 0.05 | 91 | 1008.0 |
| 20260509104556 | 18 | 148 | 6.4 | 16.1 | 0.00 | 0.51 | 0.05 | 91 | 1008.0 |
| 20260509103102 | 18 | 113 | 6.4 | 16.1 | 0.00 | 0.51 | 0.05 | 90 | 1007.8 |
| 20260509101557 | 18 | 146 | 4.8 | 16.1 | 0.00 | 0.51 | 0.05 | 90 | 1008.1 |
| 20260509100058 | 18 | 159 | 8.0 | 12.9 | 0.00 | 0.51 | 0.05 | 90 | 1008.2 |
| 20260509094550 | 17 | 157 | 6.4 | 11.3 | 0.00 | 0.51 | 0.05 | 90 | 1008.4 |
| 20260509093050 | 17 | 165 | 6.4 | 8.0 | 0.00 | 0.51 | 0.05 | 89 | 1008.5 |
| 20260509091550 | 17 | 182 | 1.6 | 6.4 | 0.00 | 0.51 | 0.05 | 89 | 1008.5 |
| 20260509090054 | 17 | 184 | 0.0 | 8.0 | 0.00 | 0.51 | 0.05 | 89 | 1008.5 |
| 20260509084548 | 17 | 183 | 3.2 | 4.8 | 0.00 | 0.51 | 0.05 | 88 | 1008.8 |
| 20260509083048 | 17 | 183 | 4.8 | 9.7 | 0.00 | 0.51 | 0.05 | 89 | 1009.2 |
| 20260509081542 | 18 | 121 | 0.0 | 0.0 | 0.00 | 0.51 | 0.05 | 88 | 1009.6 |
| 20260509080042 | 18 | 109 | 1.6 | 3.2 | 0.00 | 0.51 | 0.05 | 87 | 1009.7 |
| 20260509074545 | 18 | 108 | 3.2 | 6.4 | 0.00 | 0.51 | 0.05 | 86 | 1009.5 |
| 20260509073038 | 18 | 108 | 6.4 | 11.3 | 0.00 | 0.51 | 0.05 | 86 | 1009.7 |
| 20260509071536 | 18 | 155 | 0.0 | 0.0 | 0.00 | 0.51 | 0.05 | 86 | 1010.0 |
| 20260509070040 | 18 | 155 | 3.2 | 16.1 | 0.00 | 0.51 | 0.05 | 87 | 1009.7 |
| 20260509064538 | 18 | 125 | 3.2 | 9.7 | 0.00 | 0.51 | 0.05 | 86 | 1010.2 |
| 20260509063033 | 18 | 87 | 3.2 | 9.7 | 0.00 | 0.51 | 0.05 | 85 | 1010.5 |
| 20260509061534 | 18 | 97 | 4.8 | 9.7 | 0.00 | 0.51 | 0.05 | 86 | 1010.6 |
| 20260509060037 | 18 | 153 | 4.8 | 11.3 | 0.03 | 0.51 | 0.05 | 86 | 1010.2 |
| 20260509054531 | 18 | 148 | 11.3 | 19.3 | 0.23 | 0.51 | 0.05 | 86 | 1010.0 |
| 20260509053027 | 18 | 137 | 11.3 | 22.5 | 0.51 | 0.51 | 0.05 | 85 | 1009.9 |
| 20260509051524 | 19 | 182 | 14.5 | 25.7 | 0.51 | 0.51 | 0.05 | 85 | 1009.5 |
| 20260509050039 | 20 | 132 | 8.0 | 17.7 | 0.46 | 0.46 | 0.00 | 80 | 1010.4 |
| 20260509044526 | 21 | 68 | 19.3 | 40.2 | 0.25 | 0.25 | 0.25 | 80 | 1010.8 |
| 20260509043024 | 21 | 63 | 14.5 | 25.7 | 0.00 | 0.00 | 0.00 | 79 | 1010.7 |
| 20260509041524 | 21 | 78 | 17.7 | 22.5 | 0.00 | 0.00 | 0.00 | 77 | 1009.8 |
| 20260509040023 | 21 | 76 | 9.7 | 14.5 | 0.00 | 0.00 | 0.00 | 76 | 1009.9 |
| 20260509034522 | 21 | 155 | 3.2 | 8.0 | 0.00 | 0.00 | 0.00 | 75 | 1009.6 |
| 20260509033022 | 21 | 155 | 3.2 | 8.0 | 0.00 | 0.00 | 0.00 | 75 | 1009.4 |
| 20260509031530 | 21 | 157 | 0.0 | 9.7 | 0.00 | 0.00 | 0.00 | 75 | 1009.5 |
| 20260509030026 | 21 | 160 | 9.7 | 14.5 | 0.00 | 0.00 | 0.00 | 75 | 1009.2 |
| 20260509024533 | 21 | 135 | 3.2 | 11.3 | 0.00 | 0.00 | 0.00 | 72 | 1009.1 |
| 20260509023020 | 21 | 124 | 4.8 | 9.7 | 0.00 | 0.00 | 0.00 | 71 | 1009.0 |
| 20260509021519 | 21 | 119 | 4.8 | 9.7 | 0.00 | 0.00 | 0.00 | 69 | 1008.7 |
| 20260509020018 | 22 | 125 | 1.6 | 4.8 | 0.00 | 0.00 | 0.00 | 68 | 1008.8 |
| 20260509014518 | 22 | 125 | 1.6 | 6.4 | 0.00 | 0.00 | 0.00 | 68 | 1008.4 |
| 20260509013025 | 22 | 120 | 4.8 | 9.7 | 0.00 | 0.00 | 0.00 | 67 | 1008.1 |
| 20260509011517 | 23 | 128 | 1.6 | 6.4 | 0.00 | 0.00 | 0.00 | 66 | 1008.0 |
| 20260509010022 | 23 | 132 | 0.0 | 11.3 | 0.00 | 0.00 | 0.00 | 66 | 1007.9 |
| 20260509004516 | 23 | 139 | 4.8 | 11.3 | 0.00 | 0.00 | 0.00 | 65 | 1007.8 |
| 20260509003016 | 24 | 139 | 6.4 | 14.5 | 0.00 | 0.00 | 0.00 | 64 | 1007.8 |
| 20260509001515 | 25 | 161 | 9.7 | 17.7 | 0.00 | 0.00 | 0.00 | 63 | 1007.8 |
| 20260509000015 | 25 | 153 | 9.7 | 17.7 | 0.00 | 0.00 | 0.00 | 62 | 1008.1 |
| 20260508234514 | 26 | 158 | 12.9 | 19.3 | 0.00 | 0.00 | 0.00 | 61 | 1008.3 |
| 20260508233013 | 26 | 159 | 12.9 | 19.3 | 0.00 | 0.00 | 0.00 | 61 | 1008.2 |
| 20260508231512 | 26 | 163 | 8.0 | 16.1 | 0.00 | 0.00 | 0.00 | 61 | 1008.2 |
| 20260508230011 | 25 | 207 | 11.3 | 16.1 | 0.00 | 0.00 | 0.00 | 65 | 1008.1 |
| 20260508224510 | 25 | 13 | 3.2 | 17.7 | 0.00 | 0.00 | 0.00 | 66 | 1007.8 |
| 20260508223019 | 23 | 123 | 17.7 | 27.4 | 0.00 | 0.00 | 0.00 | 66 | 1006.0 |
| 20260508221508 | 24 | 216 | 1.6 | 11.3 | 0.00 | 0.00 | 0.00 | 64 | 1009.2 |
| 20260508220011 | 25 | 197 | 4.8 | 11.3 | 0.00 | 0.00 | 0.00 | 62 | 1009.0 |
| 20260508214503 | 25 | 213 | 4.8 | 11.3 | 0.00 | 0.00 | 0.00 | 59 | 1009.3 |
| 20260508213008 | 26 | 213 | 4.8 | 14.5 | 0.00 | 0.00 | 0.00 | 59 | 1009.0 |
| 20260508211501 | 26 | 175 | 1.6 | 11.3 | 0.00 | 0.00 | 0.00 | 59 | 1009.2 |
| 20260508210100 | 27 | 150 | 4.8 | 14.5 | 0.00 | 0.00 | 0.00 | 59 | 1009.1 |
| 20260508204617 | 27 | 162 | 4.8 | 12.9 | 0.00 | 0.00 | 0.00 | 61 | 1009.2 |
| 20260508203059 | 27 | 127 | 4.8 | 14.5 | 0.00 | 0.00 | 0.00 | 61 | 1009.4 |
| 20260508201607 | 27 | 106 | 3.2 | 14.5 | 0.00 | 0.00 | 0.00 | 62 | 1009.3 |
| 20260508200101 | 26 | 158 | 8.0 | 17.7 | 0.00 | 0.00 | 0.00 | 63 | 1009.8 |
| 20260508194545 | 25 | 111 | 9.7 | 14.5 | 0.00 | 0.00 | 0.00 | 65 | 1009.9 |
| 20260508193041 | 25 | 154 | 4.8 | 16.1 | 0.00 | 0.00 | 0.00 | 66 | 1010.5 |
| 20260508191540 | 25 | 186 | 8.0 | 17.7 | 0.00 | 0.00 | 0.00 | 65 | 1010.5 |
| 20260508190043 | 25 | 144 | 8.0 | 14.5 | 0.00 | 0.00 | 0.00 | 66 | 1010.8 |
| 20260508184535 | 25 | 161 | 8.0 | 17.7 | 0.00 | 0.00 | 0.00 | 64 | 1011.0 |
| 20260508183036 | 25 | 188 | 8.0 | 16.1 | 0.00 | 0.00 | 0.00 | 66 | 1011.1 |
| 20260508181543 | 24 | 183 | 6.4 | 12.9 | 0.00 | 0.00 | 0.00 | 66 | 1011.5 |
| 20260508180025 | 23 | 227 | 1.6 | 14.5 | 0.00 | 0.00 | 0.00 | 67 | 1012.0 |
| 20260508174528 | 23 | 186 | 4.8 | 12.9 | 0.00 | 0.00 | 0.00 | 66 | 1012.2 |